createdAt,value
2018-04-28T02:02:02.002Z,0
2018-04-28T02:03:03.650Z,0
2018-04-28T02:04:55.571Z,0
2018-04-28T02:05:57.215Z,0
2018-04-28T02:07:49.151Z,0
2018-04-28T02:08:50.816Z,0
2018-04-28T02:10:42.692Z,0
2018-04-28T02:11:44.333Z,0
2018-04-28T02:13:36.294Z,0
2018-04-28T02:14:37.941Z,0
2018-04-28T02:16:29.838Z,0
2018-04-28T02:17:31.481Z,0
2018-04-28T02:18:33.122Z,0
2018-04-28T02:19:34.763Z,0
2018-04-28T02:20:36.409Z,0
2018-04-28T02:21:38.055Z,0
2018-04-28T02:22:39.703Z,0
2018-04-28T02:23:41.357Z,0
2018-04-28T02:24:43.008Z,0
2018-04-28T02:25:44.644Z,0
2018-04-28T02:26:46.320Z,0
2018-04-28T02:27:47.998Z,0
2018-04-28T02:28:49.645Z,0
2018-04-28T02:29:51.284Z,0
2018-04-28T02:30:52.944Z,0
2018-04-28T02:31:54.578Z,0
2018-04-28T02:32:56.223Z,0
2018-04-28T02:33:57.866Z,0
2018-04-28T02:34:59.517Z,0
2018-04-28T02:36:01.163Z,0
2018-04-28T02:37:02.813Z,0
2018-04-28T02:38:04.456Z,0
2018-04-28T02:39:06.095Z,0
2018-04-28T02:40:07.747Z,0
2018-04-28T02:41:09.396Z,0
2018-04-28T02:42:11.038Z,0
2018-04-28T02:43:12.685Z,0
2018-04-28T02:44:14.337Z,0
2018-04-28T02:45:15.967Z,0
2018-04-28T02:46:17.612Z,0
2018-04-28T02:47:19.275Z,0
2018-04-28T02:48:20.922Z,0
2018-04-28T02:49:22.635Z,0
2018-04-28T02:50:24.208Z,0
2018-04-28T02:51:25.851Z,0
2018-04-28T02:52:27.496Z,0
2018-04-28T02:53:29.145Z,0
2018-04-28T02:54:30.804Z,0
2018-04-28T02:55:32.448Z,0
2018-04-28T02:56:34.092Z,0
2018-04-28T02:57:35.736Z,0
2018-04-28T02:58:37.377Z,0
2018-04-28T02:59:39.024Z,0
2018-04-28T03:00:40.672Z,0
2018-04-28T03:01:42.316Z,0
2018-04-28T03:02:47.002Z,0
2018-04-28T03:03:48.663Z,0
2018-04-28T03:04:50.308Z,0
2018-04-28T03:05:51.963Z,0
2018-04-28T03:06:53.614Z,0
2018-04-28T03:07:55.262Z,0
2018-04-28T03:08:56.906Z,0
2018-04-28T03:09:58.582Z,0
2018-04-28T03:11:00.227Z,0
2018-04-28T03:12:01.857Z,0
2018-04-28T03:13:03.515Z,0
2018-04-28T03:14:05.153Z,0
2018-04-28T03:15:06.803Z,0
2018-04-28T03:16:08.456Z,0
2018-04-28T03:17:10.097Z,0
2018-04-28T03:18:11.742Z,0
2018-04-28T03:19:13.381Z,0
2018-04-28T03:20:15.025Z,0
2018-04-28T03:21:16.680Z,0
2018-04-28T03:22:18.328Z,0
2018-04-28T03:23:20.046Z,0
2018-04-28T03:24:21.724Z,0
2018-04-28T03:25:23.346Z,0
2018-04-28T03:26:24.984Z,0
2018-04-28T03:27:26.628Z,0
2018-04-28T03:28:28.279Z,4
2018-04-28T03:29:29.921Z,4
2018-04-28T03:30:31.565Z,4
2018-04-28T03:31:33.201Z,0
2018-04-28T03:32:34.846Z,4
2018-04-28T03:33:36.484Z,4
2018-04-28T03:34:38.134Z,4
2018-04-28T03:35:39.796Z,8
2018-04-28T03:36:41.443Z,8
2018-04-28T03:37:43.072Z,8
2018-04-28T03:38:44.716Z,8
2018-04-28T03:39:46.383Z,12
2018-04-28T03:40:48.024Z,16
2018-04-28T03:41:49.672Z,20
2018-04-28T03:42:51.321Z,20
2018-04-28T03:43:52.965Z,24
2018-04-28T03:44:54.607Z,28
2018-04-28T03:45:56.253Z,36
2018-04-28T03:46:57.906Z,40
2018-04-28T03:47:59.550Z,44
2018-04-28T03:49:01.210Z,56
2018-04-28T03:50:02.855Z,60
2018-04-28T03:51:04.498Z,72
2018-04-28T03:52:06.140Z,84
2018-04-28T03:53:07.782Z,96
2018-04-28T03:54:09.435Z,108
2018-04-28T03:55:11.089Z,124
2018-04-28T03:56:12.736Z,144
2018-04-28T03:57:14.376Z,160
2018-04-28T03:58:16.039Z,184
2018-04-28T03:59:17.684Z,204
2018-04-28T04:00:19.330Z,232
2018-04-28T04:01:20.967Z,256
2018-04-28T04:02:22.619Z,276
2018-04-28T04:03:24.273Z,296
2018-04-28T04:04:25.944Z,324
2018-04-28T04:05:27.554Z,352
2018-04-28T04:06:29.206Z,384
2018-04-28T04:07:30.845Z,424
2018-04-28T04:08:32.495Z,468
2018-04-28T04:09:34.137Z,516
2018-04-28T04:10:35.799Z,564
2018-04-28T04:11:37.449Z,612
2018-04-28T04:12:39.098Z,660
2018-04-28T04:13:40.749Z,712
2018-04-28T04:14:42.399Z,768
2018-04-28T04:15:44.044Z,824
2018-04-28T04:16:45.720Z,880
2018-04-28T04:17:47.346Z,936
2018-04-28T04:18:48.996Z,996
2018-04-28T04:19:50.685Z,1056
2018-04-28T04:20:52.418Z,1116
2018-04-28T04:21:53.952Z,1180
2018-04-28T04:22:55.601Z,1220
2018-04-28T04:23:57.250Z,1272
2018-04-28T04:24:58.894Z,1324
2018-04-28T04:26:00.546Z,1400
2018-04-28T04:27:02.193Z,1484
2018-04-28T04:28:03.844Z,1576
2018-04-28T04:29:05.493Z,1660
2018-04-28T04:30:07.151Z,1764
2018-04-28T04:31:08.801Z,1880
2018-04-28T04:32:10.458Z,1956
2018-04-28T04:33:12.107Z,1988
2018-04-28T04:34:13.755Z,2036
2018-04-28T04:35:15.406Z,2104
2018-04-28T04:36:17.051Z,2208
2018-04-28T04:37:18.701Z,2328
2018-04-28T04:38:20.344Z,2436
2018-04-28T04:39:21.997Z,2552
2018-04-28T04:40:23.666Z,2692
2018-04-28T04:41:25.330Z,2868
2018-04-28T04:42:26.974Z,3012
2018-04-28T04:43:28.632Z,3116
2018-04-28T04:44:30.282Z,3184
2018-04-28T04:45:31.945Z,3260
2018-04-28T04:46:33.602Z,3308
2018-04-28T04:47:35.252Z,3356
2018-04-28T04:48:36.901Z,3376
2018-04-28T04:49:38.552Z,3436
2018-04-28T04:50:40.204Z,3500
2018-04-28T04:51:41.859Z,3600
2018-04-28T04:52:43.514Z,3700
2018-04-28T04:53:45.169Z,3828
2018-04-28T04:54:46.822Z,3972
2018-04-28T04:55:48.470Z,4044
2018-04-28T04:56:50.124Z,4092
2018-04-28T04:57:51.770Z,4068
2018-04-28T04:58:53.429Z,4040
2018-04-28T04:59:55.083Z,4048
2018-04-28T05:00:56.735Z,4096
2018-04-28T05:01:58.393Z,4144
2018-04-28T05:03:00.043Z,4172
2018-04-28T05:04:01.696Z,4156
2018-04-28T05:05:03.351Z,4164
2018-04-28T05:06:05.011Z,4196
2018-04-28T05:07:06.664Z,4296
2018-04-28T05:08:08.310Z,4428
2018-04-28T05:09:09.973Z,4572
2018-04-28T05:10:11.623Z,4748
2018-04-28T05:11:13.273Z,4796
2018-04-28T05:12:14.921Z,4952
2018-04-28T05:13:16.577Z,5172
2018-04-28T05:14:18.236Z,5388
2018-04-28T05:15:19.889Z,5656
2018-04-28T05:16:21.552Z,6484
2018-04-28T05:17:23.223Z,6912
2018-04-28T05:18:24.885Z,7108
2018-04-28T05:19:26.527Z,7764
2018-04-28T05:20:28.193Z,9200
2018-04-28T05:21:29.853Z,8048
2018-04-28T05:22:31.510Z,8592
2018-04-28T05:23:33.163Z,8868
2018-04-28T05:24:34.823Z,9336
2018-04-28T05:25:36.468Z,9048
2018-04-28T05:26:38.133Z,9444
2018-04-28T05:27:39.775Z,9604
2018-04-28T05:28:41.493Z,10144
2018-04-28T05:29:43.152Z,11656
2018-04-28T05:30:44.807Z,11692
2018-04-28T05:31:46.480Z,13120
2018-04-28T05:32:48.150Z,12072
2018-04-28T05:33:49.800Z,10000
2018-04-28T05:34:51.463Z,10084
2018-04-28T05:35:53.159Z,10612
2018-04-28T05:36:54.778Z,10876
2018-04-28T05:37:56.433Z,11168
2018-04-28T05:38:58.084Z,11836
2018-04-28T05:39:59.742Z,12012
2018-04-28T05:41:01.391Z,11532
2018-04-28T05:42:03.050Z,11584
2018-04-28T05:43:04.705Z,11828
2018-04-28T05:44:06.385Z,12248
2018-04-28T05:45:08.048Z,12912
2018-04-28T05:46:09.701Z,13632
2018-04-28T05:47:11.363Z,13996
2018-04-28T05:48:13.013Z,14248
2018-04-28T05:49:14.669Z,14432
2018-04-28T05:50:16.327Z,15288
2018-04-28T05:51:17.988Z,16512
2018-04-28T05:52:19.643Z,17760
2018-04-28T05:53:21.295Z,18592
2018-04-28T05:54:22.954Z,19424
2018-04-28T05:55:24.615Z,17088
2018-04-28T06:01:43.186Z,19040
2018-04-28T06:02:44.840Z,19360
2018-04-28T06:04:36.743Z,18720
2018-04-28T06:05:38.398Z,17728
2018-04-28T06:07:30.299Z,18080
2018-04-28T06:08:31.951Z,18752
2018-04-28T06:09:33.616Z,20512
2018-04-28T06:10:35.278Z,19744
2018-04-28T06:11:36.937Z,21440
2018-04-28T06:12:38.589Z,24480
2018-04-28T06:13:40.246Z,23776
2018-04-28T06:14:41.925Z,23040
2018-04-28T06:15:43.598Z,22624
2018-04-28T06:16:45.250Z,22592
2018-04-28T06:17:46.913Z,26624
2018-04-28T06:18:48.574Z,31168
2018-04-28T06:19:50.232Z,35936
2018-04-28T06:20:51.885Z,28896
2018-04-28T06:21:53.548Z,23648
2018-04-28T06:22:55.204Z,22272
2018-04-28T06:23:56.859Z,21952
2018-04-28T06:24:58.524Z,21920
2018-04-28T06:26:00.218Z,21728
2018-04-28T06:27:01.915Z,22752
2018-04-28T06:28:03.573Z,22720
2018-04-28T06:29:05.230Z,22592
2018-04-28T06:30:06.895Z,24352
2018-04-28T06:31:08.554Z,31040
2018-04-28T06:32:10.238Z,24672
2018-04-28T06:33:11.893Z,30848
2018-04-28T06:34:13.554Z,24224
2018-04-28T06:35:15.223Z,23744
2018-04-28T06:36:16.886Z,16352
2018-04-28T06:37:18.547Z,15828
2018-04-28T06:38:20.285Z,16292
2018-04-28T06:39:21.825Z,16700
2018-04-28T06:40:23.493Z,16712
2018-04-28T06:41:25.140Z,17304
2018-04-28T06:42:26.810Z,17348
2018-04-28T06:43:28.473Z,18400
2018-04-28T06:44:30.137Z,20736
2018-04-28T06:45:31.803Z,27872
2018-04-28T06:46:33.460Z,27680
2018-04-28T06:47:35.125Z,28512
2018-04-28T06:48:36.784Z,31008
2018-04-28T06:49:38.452Z,30816
2018-04-28T06:50:40.110Z,31200
2018-04-28T06:51:41.785Z,36480
2018-04-28T06:52:43.443Z,38656
2018-04-28T06:53:45.109Z,38720
2018-04-28T06:54:46.816Z,38112
2018-04-28T06:55:48.483Z,35232
2018-04-28T06:56:50.158Z,38240
2018-04-28T06:57:51.831Z,35456
2018-04-28T06:58:53.496Z,37248
2018-04-28T06:59:55.156Z,32832
2018-04-28T07:00:56.824Z,50080
2018-04-28T07:01:58.494Z,53312
2018-04-28T07:03:00.167Z,48640
2018-04-28T07:04:01.833Z,48960
2018-04-28T07:05:03.492Z,52544
2018-04-28T07:06:05.150Z,42336
2018-04-28T07:07:06.810Z,51680
2018-04-28T07:08:08.487Z,52032
2018-04-28T07:09:10.148Z,52864
2018-04-28T07:10:11.810Z,48608
2018-04-28T07:11:14.120Z,54112
2018-04-28T07:12:15.780Z,51680
2018-04-28T07:13:17.431Z,56416
2018-04-28T07:14:19.100Z,60640
2018-04-28T07:15:20.770Z,68576
2018-04-28T07:16:22.439Z,77088
2018-04-28T07:17:24.105Z,77856
2018-04-28T07:18:25.771Z,88640
2018-04-28T07:19:27.448Z,90496
2018-04-28T07:20:29.108Z,75584
2018-04-28T07:21:30.776Z,54816
2018-04-28T07:22:32.448Z,55392
2018-04-28T07:23:34.652Z,43424
2018-04-28T07:24:36.325Z,38720
2018-04-28T07:25:37.993Z,37472
2018-04-28T07:26:39.663Z,43328
2018-04-28T07:27:41.324Z,51200
2018-04-28T07:28:43.002Z,46016
2018-04-28T07:29:44.670Z,49600
2018-04-28T07:30:46.365Z,57216
2018-04-28T07:31:48.034Z,82432
2018-04-28T07:32:49.698Z,64352
2018-04-28T07:33:51.371Z,35136
2018-04-28T07:34:53.073Z,46784
2018-04-28T07:35:54.736Z,31424
2018-04-28T07:36:56.395Z,37920
2018-04-28T07:37:58.059Z,25728
2018-04-28T07:38:59.732Z,46848
2018-04-28T07:40:01.484Z,38880
2018-04-28T07:41:03.131Z,72800
2018-04-28T07:42:04.802Z,55584
2018-04-28T07:43:06.517Z,66880
2018-04-28T07:44:08.194Z,46272
2018-04-28T07:45:10.696Z,45376
2018-04-28T07:46:12.364Z,41184
2018-04-28T07:47:14.034Z,92704
2018-04-28T07:48:15.711Z,92768
2018-04-28T07:49:17.405Z,53600
2018-04-28T07:50:19.089Z,56096
2018-04-28T07:51:20.979Z,61248
2018-04-28T07:52:22.638Z,62208
2018-04-28T07:53:24.772Z,44704
2018-04-28T07:54:26.446Z,43456
2018-04-28T07:55:28.117Z,45216
2018-04-28T07:56:29.777Z,77952
2018-04-28T07:57:31.480Z,41184
2018-04-28T07:58:33.117Z,39872
2018-04-28T07:59:34.777Z,42816
2018-04-28T08:00:38.609Z,40960
2018-04-28T08:01:40.183Z,49216
2018-04-28T08:02:41.845Z,46016
2018-04-28T08:03:43.510Z,57632
2018-04-28T08:04:45.177Z,48448
2018-04-28T08:05:46.850Z,46144
2018-04-28T08:06:48.515Z,51040
2018-04-28T08:07:50.187Z,57760
2018-04-28T08:08:51.849Z,44192
2018-04-28T08:09:53.520Z,44768
2018-04-28T08:10:55.184Z,40448
2018-04-28T08:11:56.862Z,42016
2018-04-28T08:12:58.493Z,80480
2018-04-28T08:14:00.163Z,56000
2018-04-28T08:15:01.841Z,63936
2018-04-28T08:16:03.508Z,94944
2018-04-28T08:17:05.177Z,57088
2018-04-28T08:18:06.843Z,59232
2018-04-28T08:19:08.510Z,47776
2018-04-28T08:20:10.174Z,47968
2018-04-28T08:21:11.834Z,50400
2018-04-28T08:22:13.508Z,44928
2018-04-28T08:23:15.176Z,45952
2018-04-28T08:24:16.847Z,46624
2018-04-28T08:25:18.518Z,43744
2018-04-28T08:26:20.183Z,53696
2018-04-28T08:27:21.848Z,44960
2018-04-28T08:28:23.897Z,57824
2018-04-28T08:29:25.520Z,71392
2018-04-28T08:30:27.681Z,100320
2018-04-28T08:31:29.354Z,72064
2018-04-28T08:32:31.036Z,44320
2018-04-28T08:33:32.703Z,58624
2018-04-28T08:34:34.362Z,31424
2018-04-28T08:35:36.025Z,30752
2018-04-28T08:36:37.834Z,42560
2018-04-28T08:37:39.656Z,44736
2018-04-28T08:38:41.327Z,44640
2018-04-28T08:39:42.992Z,81184
2018-04-28T08:40:44.657Z,23936
2018-04-28T08:41:46.352Z,19712
2018-04-28T08:42:48.026Z,19904
2018-04-28T08:43:49.700Z,20448
2018-04-28T08:44:51.383Z,20640
2018-04-28T08:45:53.037Z,29760
2018-04-28T08:46:54.703Z,20544
2018-04-28T08:47:56.355Z,21120
2018-04-28T08:48:58.020Z,24096
2018-04-28T08:49:59.674Z,28224
2018-04-28T08:51:01.371Z,32960
2018-04-28T08:52:03.009Z,33696
2018-04-28T08:53:04.686Z,50496
2018-04-28T08:54:06.369Z,28416
2018-04-28T08:55:08.046Z,28192
2018-04-28T08:56:09.736Z,142304
2018-04-28T08:57:11.408Z,145792
2018-04-28T08:58:13.076Z,145696
2018-04-28T08:59:14.740Z,29408
2018-04-28T09:00:16.406Z,48000
2018-04-28T09:01:18.068Z,39680
2018-04-28T09:02:19.736Z,41280
2018-04-28T09:03:21.394Z,49280
2018-04-28T09:04:23.067Z,140640
2018-04-28T09:05:24.737Z,130592
2018-04-28T09:06:26.395Z,132416
2018-04-28T09:07:28.068Z,141728
2018-04-28T09:08:29.741Z,140096
2018-04-28T09:09:31.386Z,132640
2018-04-28T09:10:33.054Z,135936
2018-04-28T09:11:34.734Z,142848
2018-04-28T09:12:36.397Z,150752
2018-04-28T09:13:38.092Z,150080
2018-04-28T09:14:39.764Z,143488
2018-04-28T09:15:41.435Z,141344
2018-04-28T09:16:43.106Z,83360
2018-04-28T09:17:44.778Z,144000
2018-04-28T09:18:46.471Z,67424
2018-04-28T09:19:48.151Z,64608
2018-04-28T09:20:49.821Z,68320
2018-04-28T09:21:51.527Z,153792
2018-04-28T09:22:53.207Z,149344
2018-04-28T09:23:55.055Z,51424
2018-04-28T09:24:56.749Z,155008
2018-04-28T09:25:58.877Z,42688
2018-04-28T09:27:00.576Z,114688
2018-04-28T09:28:02.243Z,130144
2018-04-28T09:29:03.988Z,137216
2018-04-28T09:30:05.653Z,48192
2018-04-28T09:31:07.329Z,39584
2018-04-28T09:32:09.004Z,125120
2018-04-28T09:33:10.678Z,141344
2018-04-28T09:34:12.344Z,43424
2018-04-28T09:35:14.664Z,45280
2018-04-28T09:36:16.339Z,49024
2018-04-28T09:37:18.009Z,72832
2018-04-28T09:38:19.700Z,46560
2018-04-28T09:39:21.355Z,40992
2018-04-28T09:40:23.039Z,38016
2018-04-28T09:41:24.796Z,37664
2018-04-28T09:42:26.473Z,84032
2018-04-28T09:43:28.143Z,44704
2018-04-28T09:44:31.246Z,43008
2018-04-28T09:45:35.465Z,45664
2018-04-28T09:46:37.002Z,42624
2018-04-28T09:47:38.677Z,38112
2018-04-28T09:48:40.347Z,38240
2018-04-28T09:49:42.023Z,37984
2018-04-28T09:50:43.704Z,129088
2018-04-28T09:51:45.399Z,36736
2018-04-28T09:52:47.063Z,32960
2018-04-28T09:53:49.398Z,38592
2018-04-28T09:54:51.075Z,35616
2018-04-28T10:01:21.278Z,110432
2018-04-28T10:02:22.966Z,108448
2018-04-28T10:04:14.859Z,107104
2018-04-28T10:05:16.523Z,114176
2018-04-28T10:07:08.410Z,79360
2018-04-28T10:08:10.074Z,118880
2018-04-28T10:10:02.074Z,115968
2018-04-28T10:11:03.752Z,109248
2018-04-28T10:12:05.427Z,106656
2018-04-28T10:13:07.148Z,110688
2018-04-28T10:14:08.814Z,111904
2018-04-28T10:15:10.483Z,119008
2018-04-28T10:16:12.185Z,124096
2018-04-28T10:17:13.849Z,94944
2018-04-28T10:18:15.544Z,120800
2018-04-28T10:19:17.243Z,123936
2018-04-28T10:20:19.034Z,123744
2018-04-28T10:21:20.597Z,122752
2018-04-28T10:22:22.272Z,122560
2018-04-28T10:23:23.953Z,124256
2018-04-28T10:24:25.637Z,125600
2018-04-28T10:25:27.319Z,126944
2018-04-28T10:26:28.995Z,124928
2018-04-28T10:27:30.838Z,124736
2018-04-28T10:28:32.503Z,125728
2018-04-28T10:29:34.194Z,125344
2018-04-28T10:30:35.870Z,126624
2018-04-28T10:31:37.550Z,126240
2018-04-28T10:32:39.225Z,128736
2018-04-28T10:33:40.903Z,131040
2018-04-28T10:34:42.590Z,135744
2018-04-28T10:35:44.302Z,138144
2018-04-28T10:36:47.472Z,137536
2018-04-28T10:37:52.360Z,136224
2018-04-28T10:38:55.177Z,137408
2018-04-28T10:39:56.865Z,137280
2018-04-28T10:40:58.546Z,135776
2018-04-28T10:42:01.555Z,134272
2018-04-28T10:43:03.093Z,135328
2018-04-28T10:44:05.736Z,136256
2018-04-28T10:45:08.842Z,140416
2018-04-28T10:46:10.635Z,142400
2018-04-28T10:47:12.323Z,151584
2018-04-28T10:48:14.582Z,153728
2018-04-28T10:49:16.257Z,119008
2018-04-28T10:50:18.933Z,142336
2018-04-28T10:51:20.350Z,149536
2018-04-28T10:52:23.754Z,154176
2018-04-28T10:53:26.671Z,155680
2018-04-28T10:54:29.440Z,155232
2018-04-28T10:55:31.548Z,155264
2018-04-28T10:56:33.367Z,154976
2018-04-28T10:57:35.101Z,154144
2018-04-28T10:58:37.762Z,152320
2018-04-28T10:59:39.734Z,149120
2018-04-28T11:00:42.667Z,114304
2018-04-28T11:01:44.846Z,126368
2018-04-28T11:02:49.021Z,134912
2018-04-28T11:03:50.656Z,124768
2018-04-28T11:04:52.393Z,142176
2018-04-28T11:05:54.902Z,142080
2018-04-28T11:06:56.623Z,134240
2018-04-28T11:07:59.109Z,122592
2018-04-28T11:09:04.275Z,120960
2018-04-28T11:10:10.645Z,131616
2018-04-28T11:11:12.362Z,144128
2018-04-28T11:12:15.819Z,144000
2018-04-28T11:13:19.155Z,91456
2018-04-28T11:14:24.948Z,58848
2018-04-28T11:15:27.511Z,144064
2018-04-28T11:16:29.227Z,148832
2018-04-28T11:17:30.954Z,147584
2018-04-28T11:18:32.695Z,144128
2018-04-28T11:19:36.317Z,135680
2018-04-28T11:20:38.024Z,128032
2018-04-28T11:21:40.066Z,125664
2018-04-28T11:22:41.801Z,129312
2018-04-28T11:23:44.539Z,135648
2018-04-28T11:24:46.306Z,139488
2018-04-28T11:25:48.307Z,136256
2018-04-28T11:26:49.997Z,50880
2018-04-28T11:27:52.406Z,84608
2018-04-28T11:28:54.061Z,64512
2018-04-28T11:29:56.366Z,137504
2018-04-28T11:30:58.060Z,101600
2018-04-28T11:31:59.823Z,135808
2018-04-28T11:33:01.716Z,39712
2018-04-28T11:34:04.021Z,64512
2018-04-28T11:35:05.676Z,129664
2018-04-28T11:36:07.393Z,50464
2018-04-28T11:37:09.119Z,58464
2018-04-28T11:38:10.836Z,126208
2018-04-28T11:39:12.547Z,127552
2018-04-28T11:40:14.262Z,31200
2018-04-28T11:41:15.963Z,27040
2018-04-28T11:42:17.666Z,27040
2018-04-28T11:43:19.410Z,129152
2018-04-28T11:44:21.089Z,124160
2018-04-28T11:45:22.751Z,116672
2018-04-28T11:46:24.440Z,119072
2018-04-28T11:47:26.124Z,126272
2018-04-28T11:48:27.808Z,118464
2018-04-28T11:49:30.026Z,112384
2018-04-28T11:50:31.641Z,111456
2018-04-28T11:51:33.313Z,109472
2018-04-28T11:52:34.994Z,105888
2018-04-28T11:53:36.764Z,99840
2018-04-28T11:54:38.451Z,103360
2018-04-28T11:55:40.117Z,103872
2018-04-28T11:56:41.845Z,105600
2018-04-28T11:57:44.392Z,101504
2018-04-28T11:58:46.155Z,96640
2018-04-28T11:59:47.831Z,91040
2018-04-28T12:00:49.522Z,102240
2018-04-28T12:01:51.203Z,102368
2018-04-28T12:02:52.863Z,97088
2018-04-28T12:03:56.115Z,79552
2018-04-28T12:04:57.783Z,53600
2018-04-28T12:05:59.460Z,24256
2018-04-28T12:07:01.127Z,23296
2018-04-28T12:08:02.792Z,24320
2018-04-28T12:09:04.465Z,46272
2018-04-28T12:10:06.126Z,88832
2018-04-28T12:11:07.796Z,97088
2018-04-28T12:12:09.473Z,95776
2018-04-28T12:13:11.152Z,95328
2018-04-28T12:14:12.823Z,96544
2018-04-28T12:15:14.484Z,102144
2018-04-28T12:16:16.158Z,100288
2018-04-28T12:17:17.846Z,95808
2018-04-28T12:18:19.512Z,95680
2018-04-28T12:19:21.184Z,94912
2018-04-28T12:20:22.858Z,92640
2018-04-28T12:21:24.537Z,97280
2018-04-28T12:22:26.203Z,102496
2018-04-28T12:23:27.884Z,102624
2018-04-28T12:24:29.559Z,104736
2018-04-28T12:25:31.232Z,106848
2018-04-28T12:26:32.909Z,109792
2018-04-28T12:27:34.590Z,113280
2018-04-28T12:28:36.261Z,110080
2018-04-28T12:29:37.927Z,112640
2018-04-28T12:30:39.594Z,109984
2018-04-28T12:31:41.267Z,116832
2018-04-28T12:32:42.943Z,117216
2018-04-28T12:33:44.618Z,121280
2018-04-28T12:34:46.322Z,119488
2018-04-28T12:35:47.996Z,116032
2018-04-28T12:36:49.673Z,116544
2018-04-28T12:37:51.355Z,118528
2018-04-28T12:38:53.030Z,120512
2018-04-28T12:39:54.710Z,115552
2018-04-28T12:40:56.372Z,119296
2018-04-28T12:41:58.121Z,129504
2018-04-28T12:42:59.801Z,132672
2018-04-28T12:44:01.465Z,134240
2018-04-28T12:45:03.234Z,130144
2018-04-28T12:46:05.011Z,133760
2018-04-28T12:47:06.733Z,28800
2018-04-28T12:48:08.507Z,100960
2018-04-28T12:49:10.246Z,65696
2018-04-28T12:50:11.909Z,147680
2018-04-28T12:51:13.638Z,60704
2018-04-28T12:52:15.366Z,145728
2018-04-28T12:53:17.036Z,138912
2018-04-28T12:54:18.724Z,73280
2018-04-28T12:55:20.417Z,66400
2018-04-28T12:56:22.206Z,99520
2018-04-28T12:57:23.870Z,128768
2018-04-28T12:58:25.549Z,119040
2018-04-28T12:59:27.216Z,149728
2018-04-28T13:00:29.517Z,105952
2018-04-28T13:01:31.175Z,49984
2018-04-28T13:02:32.876Z,53920
2018-04-28T13:03:34.557Z,44160
2018-04-28T13:04:36.796Z,55808
2018-04-28T13:05:37.896Z,89888
2018-04-28T13:06:39.575Z,141952
2018-04-28T13:07:41.253Z,139552
2018-04-28T13:08:42.932Z,71104
2018-04-28T13:09:44.603Z,82016
2018-04-28T13:10:46.318Z,107488
2018-04-28T13:11:47.984Z,136000
2018-04-28T13:12:49.664Z,49952
2018-04-28T13:13:51.338Z,43360
2018-04-28T13:14:53.449Z,35808
2018-04-28T13:15:55.984Z,36032
2018-04-28T13:16:57.651Z,43008
2018-04-28T13:17:59.412Z,44576
2018-04-28T13:19:01.093Z,139552
2018-04-28T13:20:02.777Z,152352
2018-04-28T13:21:04.501Z,159488
2018-04-28T13:22:06.161Z,152928
2018-04-28T13:23:07.888Z,113120
2018-04-28T13:24:09.553Z,108832
2018-04-28T13:25:11.244Z,99776
2018-04-28T13:26:12.912Z,65120
2018-04-28T13:27:14.622Z,55424
2018-04-28T13:28:16.296Z,62240
2018-04-28T13:29:18.008Z,52832
2018-04-28T13:30:19.651Z,53024
2018-04-28T13:31:21.338Z,52672
2018-04-28T13:32:23.010Z,49600
2018-04-28T13:33:24.683Z,46848
2018-04-28T13:34:26.350Z,44480
2018-04-28T13:35:28.035Z,37600
2018-04-28T13:36:29.703Z,42208
2018-04-28T13:37:31.375Z,40384
2018-04-28T13:38:33.043Z,41728
2018-04-28T13:39:34.721Z,41344
2018-04-28T13:40:36.397Z,41216
2018-04-28T13:41:38.075Z,42368
2018-04-28T13:42:39.754Z,36864
2018-04-28T13:43:41.462Z,47680
2018-04-28T13:44:43.121Z,48960
2018-04-28T13:45:48.008Z,29952
2018-04-28T13:46:52.175Z,22240
2018-04-28T13:47:58.767Z,17136
2018-04-28T13:49:03.410Z,17396
2018-04-28T13:50:06.189Z,29120
2018-04-28T13:51:08.941Z,50976
2018-04-28T13:52:10.612Z,59328
2018-04-28T13:53:15.523Z,41664
2018-04-28T13:54:17.660Z,39392
2018-04-28T13:55:19.338Z,61152
2018-04-28T13:56:21.001Z,61376
2018-04-28T14:02:10.236Z,42976
2018-04-28T14:03:11.905Z,45248
2018-04-28T14:05:03.802Z,26688
2018-04-28T14:06:05.472Z,25632
2018-04-28T14:07:57.571Z,24928
2018-04-28T14:08:59.283Z,26304
2018-04-28T14:10:51.161Z,32640
2018-04-28T14:11:52.819Z,37408
2018-04-28T14:13:44.636Z,52224
2018-04-28T14:14:46.334Z,50304
2018-04-28T14:16:38.301Z,36832
2018-04-28T14:17:40.156Z,36704
2018-04-28T14:19:32.167Z,36672
2018-04-28T14:20:33.844Z,42080
2018-04-28T14:21:35.510Z,47648
2018-04-28T14:22:37.199Z,48960
2018-04-28T14:23:38.879Z,47392
2018-04-28T14:24:40.547Z,37408
2018-04-28T14:25:42.623Z,42496
2018-04-28T14:26:47.814Z,44864
2018-04-28T14:27:52.529Z,52736
2018-04-28T14:29:00.235Z,46464
2018-04-28T14:30:10.413Z,46720
2018-04-28T14:31:12.090Z,51808
2018-04-28T14:32:13.763Z,59520
2018-04-28T14:33:15.433Z,55040
2018-04-28T14:34:17.113Z,35168
2018-04-28T14:35:19.121Z,42944
2018-04-28T14:36:20.816Z,37952
2018-04-28T14:37:22.511Z,22976
2018-04-28T14:38:27.153Z,22528
2018-04-28T14:39:28.893Z,23264
2018-04-28T14:40:30.491Z,34912
2018-04-28T14:41:32.159Z,28992
2018-04-28T14:42:33.823Z,34144
2018-04-28T14:43:37.604Z,34144
2018-04-28T14:44:39.275Z,33216
2018-04-28T14:45:40.950Z,30976
2018-04-28T14:46:42.633Z,27904
2018-04-28T14:47:44.294Z,26560
2018-04-28T14:48:46.009Z,26240
2018-04-28T14:49:47.670Z,26144
2018-04-28T14:50:49.341Z,27360
2018-04-28T14:51:51.005Z,26560
2018-04-28T14:52:52.697Z,27904
2018-04-28T14:53:54.356Z,28608
2018-04-28T14:54:56.033Z,29216
2018-04-28T14:55:57.701Z,30656
2018-04-28T14:56:59.384Z,32064
2018-04-28T14:58:01.054Z,31904
2018-04-28T14:59:02.733Z,30784
2018-04-28T15:00:04.403Z,28320
2018-04-28T15:01:06.065Z,26944
2018-04-28T15:02:07.749Z,25248
2018-04-28T15:03:09.418Z,22240
2018-04-28T15:04:11.082Z,22144
2018-04-28T15:05:13.303Z,21888
2018-04-28T15:06:16.194Z,20864
2018-04-28T15:07:17.856Z,20608
2018-04-28T15:08:20.013Z,20160
2018-04-28T15:09:21.739Z,19808
2018-04-28T15:10:23.493Z,19712
2018-04-28T15:11:25.076Z,20352
2018-04-28T15:12:26.741Z,20800
2018-04-28T15:13:28.404Z,22656
2018-04-28T15:14:30.095Z,23808
2018-04-28T15:15:31.767Z,24832
2018-04-28T15:17:44.774Z,24160
2018-04-28T15:18:46.483Z,23104
2018-04-28T15:19:48.150Z,21984
2018-04-28T15:20:49.891Z,21120
2018-04-28T15:21:51.550Z,20192
2018-04-28T15:22:53.248Z,19296
2018-04-28T15:23:54.912Z,18592
2018-04-28T15:24:56.583Z,17824
2018-04-28T15:25:58.814Z,16928
2018-04-28T15:27:00.494Z,16332
2018-04-28T15:28:02.158Z,15912
2018-04-28T15:29:03.837Z,15736
2018-04-28T15:30:05.489Z,15812
2018-04-28T15:31:07.170Z,15992
2018-04-28T15:32:08.840Z,16260
2018-04-28T15:33:10.520Z,16480
2018-04-28T15:34:12.177Z,16584
2018-04-28T15:35:13.850Z,16568
2018-04-28T15:36:15.537Z,16472
2018-04-28T15:37:17.197Z,16324
2018-04-28T15:38:18.863Z,16180
2018-04-28T15:39:20.522Z,16132
2018-04-28T15:40:22.185Z,16124
2018-04-28T15:41:23.849Z,16084
2018-04-28T15:42:25.525Z,15904
2018-04-28T15:43:27.185Z,15552
2018-04-28T15:44:28.874Z,15100
2018-04-28T15:45:30.610Z,14636
2018-04-28T15:46:32.292Z,14236
2018-04-28T15:47:33.955Z,13952
2018-04-28T15:48:35.631Z,13748
2018-04-28T15:49:37.305Z,13588
2018-04-28T15:50:38.968Z,13460
2018-04-28T15:51:40.637Z,13356
2018-04-28T15:52:42.306Z,13276
2018-04-28T15:53:43.979Z,13168
2018-04-28T15:54:45.679Z,13036
2018-04-28T15:55:47.336Z,12908
2018-04-28T15:56:49.008Z,12868
2018-04-28T15:57:50.677Z,13032
2018-04-28T15:58:52.369Z,13424
2018-04-28T15:59:54.035Z,13972